createdAt,value
2022-12-31T00:02:13.298Z,21.23
2022-12-31T00:04:40.525Z,23.00
2022-12-31T00:07:07.435Z,23.63
2022-12-31T00:09:34.364Z,22.77
2022-12-31T00:12:01.333Z,20.27
2022-12-31T00:14:28.369Z,22.07
2022-12-31T00:16:55.223Z,21.10
2022-12-31T00:19:22.201Z,21.87
2022-12-31T00:21:49.129Z,19.10
2022-12-31T00:24:16.001Z,17.73
2022-12-31T00:26:42.856Z,18.97
2022-12-31T00:29:10.671Z,17.97
2022-12-31T00:31:38.945Z,18.37
2022-12-31T00:34:06.149Z,18.00
2022-12-31T00:36:35.831Z,17.80
2022-12-31T00:39:04.902Z,18.33
2022-12-31T00:41:32.539Z,20.13
2022-12-31T00:43:59.974Z,20.67
2022-12-31T00:46:27.312Z,19.97
2022-12-31T00:48:54.413Z,19.20
2022-12-31T00:51:23.757Z,20.23
2022-12-31T00:53:50.944Z,21.57
2022-12-31T00:56:21.289Z,19.43
2022-12-31T00:58:48.947Z,17.47
2022-12-31T01:01:21.884Z,19.00
2022-12-31T01:03:51.067Z,18.83
2022-12-31T01:06:18.650Z,19.80
2022-12-31T01:08:48.441Z,19.03
2022-12-31T01:11:29.232Z,19.37
2022-12-31T01:14:02.098Z,19.67
2022-12-31T01:16:28.919Z,18.73
2022-12-31T01:18:58.154Z,19.00
2022-12-31T01:21:25.064Z,19.47
2022-12-31T01:23:52.007Z,20.10
2022-12-31T01:26:19.907Z,16.80
2022-12-31T01:28:47.531Z,17.27
2022-12-31T01:31:16.667Z,16.83
2022-12-31T01:33:43.917Z,17.73
2022-12-31T01:36:14.351Z,17.30
2022-12-31T01:38:42.146Z,15.23
2022-12-31T01:41:17.795Z,15.57
2022-12-31T01:43:59.720Z,15.13
2022-12-31T01:46:29.357Z,14.13
2022-12-31T01:49:00.169Z,13.83
2022-12-31T01:51:31.097Z,14.20
2022-12-31T01:54:01.003Z,13.10
2022-12-31T01:56:28.036Z,13.53
2022-12-31T01:58:57.215Z,11.10
2022-12-31T02:01:30.345Z,12.57
2022-12-31T02:03:57.866Z,14.10
2022-12-31T02:06:32.488Z,12.97
2022-12-31T02:08:59.417Z,14.23
2022-12-31T02:11:30.253Z,14.10
2022-12-31T02:14:02.418Z,13.87
2022-12-31T02:16:42.176Z,15.67
2022-12-31T02:19:45.923Z,14.07
2022-12-31T02:22:19.036Z,14.30
2022-12-31T02:25:08.772Z,13.77
2022-12-31T02:28:06.786Z,14.60
2022-12-31T02:30:34.803Z,13.33
2022-12-31T02:33:27.228Z,15.00
2022-12-31T02:35:58.534Z,14.60
2022-12-31T02:38:35.999Z,13.73
2022-12-31T02:41:02.935Z,12.53
2022-12-31T02:43:29.792Z,12.30
2022-12-31T02:46:14.422Z,12.23
2022-12-31T02:49:14.675Z,12.27
2022-12-31T02:51:50.154Z,14.10
2022-12-31T02:54:52.922Z,13.13
2022-12-31T02:58:10.117Z,14.17
2022-12-31T03:01:03.785Z,14.10
2022-12-31T03:03:32.118Z,15.07
2022-12-31T03:06:02.794Z,13.70
2022-12-31T03:08:30.484Z,15.70
2022-12-31T03:10:57.804Z,14.93
2022-12-31T03:13:24.855Z,12.70
2022-12-31T03:15:51.755Z,14.10
2022-12-31T03:18:39.748Z,13.13
2022-12-31T03:21:31.532Z,19.97
2022-12-31T03:24:16.928Z,17.43
2022-12-31T03:26:44.087Z,17.00
2022-12-31T03:29:10.917Z,16.37
2022-12-31T03:31:37.802Z,15.27
2022-12-31T03:34:04.680Z,15.47
2022-12-31T03:36:31.518Z,17.70
2022-12-31T03:38:58.419Z,16.10
2022-12-31T03:41:25.281Z,15.50
2022-12-31T03:43:52.167Z,14.73
2022-12-31T03:46:19.197Z,13.97
2022-12-31T03:48:46.098Z,14.50
2022-12-31T03:51:13.531Z,14.17
2022-12-31T03:53:40.358Z,14.07
2022-12-31T03:56:07.533Z,13.67
2022-12-31T03:58:34.349Z,12.60
2022-12-31T04:01:01.246Z,13.80
2022-12-31T04:03:28.802Z,13.90
2022-12-31T04:05:56.015Z,13.37
2022-12-31T04:08:23.558Z,12.47
2022-12-31T04:10:50.741Z,10.80
2022-12-31T04:13:17.611Z,11.70
2022-12-31T04:15:44.542Z,10.33
2022-12-31T04:18:11.538Z,12.23
2022-12-31T04:20:38.411Z,12.43
2022-12-31T04:23:05.241Z,11.37
2022-12-31T04:25:32.302Z,11.33
2022-12-31T04:27:59.225Z,11.37
2022-12-31T04:30:26.085Z,11.73
2022-12-31T04:32:53.039Z,11.03
2022-12-31T04:35:20.564Z,15.67
2022-12-31T04:37:47.447Z,14.07
2022-12-31T04:40:14.375Z,14.90
2022-12-31T04:42:41.974Z,13.73
2022-12-31T04:45:10.600Z,15.60
2022-12-31T04:47:37.475Z,13.97
2022-12-31T04:50:05.329Z,14.47
2022-12-31T04:52:35.754Z,14.60
2022-12-31T04:55:04.219Z,15.40
2022-12-31T04:57:31.078Z,17.83
2022-12-31T04:59:57.902Z,15.90
2022-12-31T05:02:24.934Z,15.70
2022-12-31T05:04:51.966Z,16.07
2022-12-31T05:07:19.211Z,15.67
2022-12-31T05:09:46.193Z,16.40
2022-12-31T05:12:13.026Z,16.50
2022-12-31T05:14:39.857Z,16.60
2022-12-31T05:17:06.702Z,17.70
2022-12-31T05:19:33.549Z,17.37
2022-12-31T05:22:18.668Z,18.17
2022-12-31T05:24:45.483Z,18.43
2022-12-31T05:27:12.448Z,22.47
2022-12-31T05:29:39.352Z,21.90
2022-12-31T05:32:06.177Z,21.87
2022-12-31T05:34:33.106Z,20.13
2022-12-31T05:36:59.907Z,25.17
2022-12-31T05:39:26.813Z,17.70
2022-12-31T05:41:53.720Z,17.77
2022-12-31T05:44:20.589Z,19.43
2022-12-31T05:46:47.443Z,17.87
2022-12-31T05:49:14.243Z,18.03
2022-12-31T05:51:41.170Z,19.30
2022-12-31T05:54:08.021Z,18.40
2022-12-31T05:56:36.703Z,17.70
2022-12-31T05:59:03.696Z,18.00
2022-12-31T06:01:30.714Z,19.93
2022-12-31T06:03:57.688Z,26.33
2022-12-31T06:06:24.560Z,25.53
2022-12-31T06:08:52.242Z,22.20
2022-12-31T06:11:19.122Z,17.17
2022-12-31T06:13:45.990Z,19.50
2022-12-31T06:16:12.993Z,18.20
2022-12-31T06:18:40.044Z,21.70
2022-12-31T06:21:06.924Z,21.03
2022-12-31T06:23:33.907Z,20.53
2022-12-31T06:26:05.383Z,18.13
2022-12-31T06:28:32.433Z,20.87
2022-12-31T06:31:01.110Z,15.47
2022-12-31T06:33:28.987Z,14.10
2022-12-31T06:35:57.539Z,13.67
2022-12-31T06:38:25.609Z,14.83
2022-12-31T06:40:53.253Z,12.97
2022-12-31T06:43:20.768Z,13.37
2022-12-31T06:45:47.911Z,13.27
2022-12-31T06:48:15.003Z,12.97
2022-12-31T06:50:41.903Z,14.17
2022-12-31T06:53:09.015Z,16.23
2022-12-31T06:55:36.292Z,17.07
2022-12-31T06:58:03.681Z,17.20
2022-12-31T07:00:31.058Z,19.03
2022-12-31T07:03:24.190Z,20.77
2022-12-31T07:06:02.567Z,19.27
2022-12-31T07:08:32.459Z,13.53
2022-12-31T07:11:08.743Z,15.13
2022-12-31T07:13:49.873Z,17.40
2022-12-31T07:16:32.194Z,14.97
2022-12-31T07:19:22.834Z,16.03
2022-12-31T07:22:03.583Z,18.63
2022-12-31T07:24:30.738Z,19.97
2022-12-31T07:26:57.550Z,21.07
2022-12-31T07:29:50.412Z,19.70
2022-12-31T07:32:38.502Z,20.07
2022-12-31T07:35:35.185Z,20.37
2022-12-31T07:38:39.454Z,20.90
2022-12-31T07:41:27.391Z,18.97
2022-12-31T07:44:27.902Z,15.00
2022-12-31T07:47:00.705Z,14.60
2022-12-31T07:49:29.767Z,19.43
2022-12-31T07:51:57.242Z,15.57
2022-12-31T07:54:24.188Z,13.83
2022-12-31T07:56:51.958Z,13.87
2022-12-31T07:59:24.405Z,14.80
2022-12-31T08:02:08.575Z,17.73
2022-12-31T08:04:54.020Z,17.73
2022-12-31T08:07:36.022Z,13.83
2022-12-31T08:10:11.289Z,14.03
2022-12-31T08:12:45.588Z,17.67
2022-12-31T08:15:18.152Z,16.37
2022-12-31T08:17:45.727Z,17.30
2022-12-31T08:20:17.917Z,19.77
2022-12-31T08:23:17.254Z,15.20
2022-12-31T08:26:23.910Z,15.37
2022-12-31T08:29:04.873Z,17.40
2022-12-31T08:31:45.199Z,15.33
2022-12-31T08:34:30.420Z,13.47
2022-12-31T08:36:57.628Z,13.77
2022-12-31T08:39:39.608Z,15.10
2022-12-31T08:42:22.689Z,14.57
2022-12-31T08:45:08.929Z,14.50
2022-12-31T08:48:13.795Z,14.70
2022-12-31T08:50:43.534Z,14.90
2022-12-31T08:53:10.772Z,11.97
2022-12-31T08:55:38.872Z,12.60
2022-12-31T08:58:36.625Z,12.53
2022-12-31T09:01:05.739Z,11.17
2022-12-31T09:03:54.386Z,15.47
2022-12-31T09:06:55.991Z,14.57
2022-12-31T09:09:53.627Z,12.17
2022-12-31T09:12:38.530Z,13.30
2022-12-31T09:15:30.557Z,11.57
2022-12-31T09:17:57.946Z,11.13
2022-12-31T09:20:41.818Z,11.67
2022-12-31T09:26:51.399Z,11.10
2022-12-31T09:29:45.801Z,10.07
2022-12-31T09:32:22.327Z,11.97
2022-12-31T09:35:07.586Z,15.93
2022-12-31T09:37:48.530Z,12.77
2022-12-31T09:40:43.189Z,11.13
2022-12-31T09:43:36.945Z,9.97
2022-12-31T09:46:33.483Z,9.50
2022-12-31T09:49:34.296Z,12.70
2022-12-31T09:52:12.165Z,8.67
2022-12-31T09:54:54.200Z,8.27
2022-12-31T09:57:30.188Z,9.23
2022-12-31T10:00:15.854Z,10.63
2022-12-31T10:03:04.232Z,8.40
2022-12-31T10:05:53.580Z,8.27
2022-12-31T10:08:38.675Z,9.40
2022-12-31T10:11:26.861Z,7.33
2022-12-31T10:14:21.534Z,7.73
2022-12-31T10:17:00.521Z,9.13
2022-12-31T10:20:00.417Z,7.00
2022-12-31T10:22:52.940Z,7.83
2022-12-31T10:25:39.414Z,7.30
2022-12-31T10:28:30.192Z,7.03
2022-12-31T10:31:04.580Z,8.13
2022-12-31T10:33:43.543Z,9.00
2022-12-31T10:36:44.686Z,8.50
2022-12-31T10:39:48.815Z,8.70
2022-12-31T10:42:37.657Z,7.10
2022-12-31T10:45:22.940Z,8.17
2022-12-31T10:48:47.126Z,7.93
2022-12-31T10:51:43.066Z,7.67
2022-12-31T10:54:27.806Z,8.17
2022-12-31T10:57:10.503Z,8.30
2022-12-31T11:00:14.323Z,8.87
2022-12-31T11:03:31.334Z,8.87
2022-12-31T11:06:16.957Z,7.70
2022-12-31T11:09:05.545Z,6.67
2022-12-31T11:11:58.631Z,6.77
2022-12-31T11:14:28.676Z,8.60
2022-12-31T11:16:58.953Z,6.63
2022-12-31T11:19:40.897Z,7.30
2022-12-31T11:22:26.031Z,6.23
2022-12-31T11:25:04.886Z,6.93
2022-12-31T11:27:34.683Z,7.30
2022-12-31T11:30:11.482Z,7.60
2022-12-31T11:32:46.112Z,5.27
2022-12-31T11:36:18.418Z,6.27
2022-12-31T11:39:01.925Z,5.73
2022-12-31T11:41:42.713Z,5.70
2022-12-31T11:44:27.725Z,8.10
2022-12-31T11:46:57.377Z,6.33
2022-12-31T11:49:40.569Z,4.70
2022-12-31T11:52:33.573Z,4.73
2022-12-31T11:55:03.569Z,4.70
2022-12-31T11:57:38.807Z,7.40
2022-12-31T12:00:20.516Z,6.87
2022-12-31T12:02:53.479Z,7.30
2022-12-31T12:05:23.846Z,5.67
2022-12-31T12:07:51.765Z,6.13
2022-12-31T12:10:36.253Z,5.27
2022-12-31T12:13:14.140Z,5.47
2022-12-31T12:15:46.394Z,6.13
2022-12-31T12:18:42.326Z,4.97
2022-12-31T12:21:24.368Z,4.60
2022-12-31T12:24:00.758Z,6.70
2022-12-31T12:26:41.578Z,7.23
2022-12-31T12:29:16.536Z,5.30
2022-12-31T12:32:20.362Z,5.37
2022-12-31T12:34:50.102Z,5.30
2022-12-31T12:37:24.673Z,4.80
2022-12-31T12:40:22.316Z,6.53
2022-12-31T12:42:51.860Z,10.87
2022-12-31T12:45:22.747Z,5.53
2022-12-31T12:47:56.247Z,5.27
2022-12-31T12:50:36.443Z,8.47
2022-12-31T12:53:08.082Z,7.93
2022-12-31T12:56:19.695Z,6.63
2022-12-31T12:58:52.416Z,5.47
2022-12-31T13:01:25.352Z,5.10
2022-12-31T13:04:34.431Z,10.37
2022-12-31T13:07:28.131Z,8.37
2022-12-31T13:10:07.084Z,4.40
2022-12-31T13:13:22.122Z,6.73
2022-12-31T13:15:58.370Z,5.17
2022-12-31T13:18:54.904Z,5.70
2022-12-31T13:21:41.795Z,6.27
2022-12-31T13:24:30.069Z,6.77
2022-12-31T13:27:34.617Z,5.80
2022-12-31T13:30:05.334Z,5.53
2022-12-31T13:32:41.087Z,5.00
2022-12-31T13:35:19.190Z,5.50
2022-12-31T13:37:48.023Z,5.67
2022-12-31T13:40:30.683Z,5.10
2022-12-31T13:46:00.678Z,4.33
2022-12-31T13:48:36.575Z,5.53
2022-12-31T13:51:15.258Z,5.80
2022-12-31T13:54:13.836Z,5.50
2022-12-31T13:56:43.404Z,5.17
2022-12-31T13:59:34.559Z,6.07
2022-12-31T14:02:24.520Z,4.97
2022-12-31T14:05:03.258Z,6.03
2022-12-31T14:07:45.328Z,6.13
2022-12-31T14:10:20.418Z,6.10
2022-12-31T14:13:10.769Z,8.87
2022-12-31T14:16:05.179Z,13.57
2022-12-31T14:19:15.947Z,15.53
2022-12-31T14:22:02.982Z,14.10
2022-12-31T14:24:42.072Z,14.33
2022-12-31T14:27:16.680Z,15.00
2022-12-31T14:30:01.435Z,15.50
2022-12-31T14:32:51.257Z,15.00
2022-12-31T14:35:36.770Z,15.43
2022-12-31T14:38:09.395Z,11.63
2022-12-31T14:41:13.132Z,13.40
2022-12-31T14:43:40.455Z,12.50
2022-12-31T14:46:25.573Z,14.60
2022-12-31T14:49:01.320Z,21.70
2022-12-31T14:51:30.051Z,20.80
2022-12-31T14:53:58.419Z,12.40
2022-12-31T14:56:39.139Z,11.60
2022-12-31T14:59:26.327Z,14.60
2022-12-31T15:01:53.906Z,18.17
2022-12-31T15:04:33.098Z,8.93
2022-12-31T15:07:10.087Z,6.47
2022-12-31T15:09:55.695Z,6.70
2022-12-31T15:12:56.668Z,9.70
2022-12-31T15:15:36.640Z,11.23
2022-12-31T15:18:28.143Z,12.17
2022-12-31T15:21:16.874Z,11.77
2022-12-31T15:23:44.695Z,15.70
2022-12-31T15:26:38.074Z,16.73
2022-12-31T15:29:08.494Z,20.33
2022-12-31T15:31:44.429Z,21.73
2022-12-31T15:34:40.639Z,25.03
2022-12-31T15:37:33.239Z,22.67
2022-12-31T15:40:19.312Z,20.47
2022-12-31T15:42:52.430Z,25.63
2022-12-31T15:45:26.146Z,19.50
2022-12-31T15:47:58.737Z,20.00
2022-12-31T15:50:26.268Z,23.87
2022-12-31T15:53:02.763Z,26.40
2022-12-31T15:55:44.317Z,25.03
2022-12-31T15:58:15.810Z,26.70
2022-12-31T16:00:54.671Z,30.60
2022-12-31T16:03:24.351Z,29.87
2022-12-31T16:05:54.226Z,26.63
2022-12-31T16:08:24.706Z,29.23
2022-12-31T16:10:54.523Z,38.80
2022-12-31T16:13:25.360Z,38.77
2022-12-31T16:16:16.500Z,40.50
2022-12-31T16:18:44.187Z,43.23
2022-12-31T16:21:28.204Z,42.63
2022-12-31T16:24:02.643Z,41.60
2022-12-31T16:26:51.733Z,42.67
2022-12-31T16:29:21.755Z,39.63
2022-12-31T16:31:50.812Z,69.10
2022-12-31T16:34:22.242Z,67.23
2022-12-31T16:37:00.198Z,85.70
2022-12-31T16:39:32.146Z,72.00
2022-12-31T16:42:13.918Z,53.27
2022-12-31T16:44:43.196Z,43.27
2022-12-31T16:47:18.202Z,40.30
2022-12-31T16:49:47.502Z,46.90
2022-12-31T16:52:33.064Z,50.63
2022-12-31T16:55:00.270Z,60.63
2022-12-31T16:57:30.558Z,65.40
2022-12-31T17:00:02.590Z,64.10
2022-12-31T17:02:38.384Z,52.13
2022-12-31T17:05:19.959Z,51.03
2022-12-31T17:07:46.863Z,49.67
2022-12-31T17:10:21.767Z,49.07
2022-12-31T17:13:27.985Z,38.53
2022-12-31T17:15:47.563Z,33.47
2022-12-31T17:18:21.837Z,34.97
2022-12-31T17:20:51.909Z,35.00
2022-12-31T17:23:32.770Z,27.70
2022-12-31T17:26:27.440Z,26.83
2022-12-31T17:28:56.618Z,30.63
2022-12-31T17:31:51.339Z,32.67
2022-12-31T17:34:54.507Z,20.87
2022-12-31T17:37:30.178Z,19.50
2022-12-31T17:42:48.538Z,27.87
2022-12-31T17:45:21.064Z,32.40
2022-12-31T17:47:51.971Z,26.63
2022-12-31T17:50:24.962Z,24.83
2022-12-31T17:53:08.861Z,28.57
2022-12-31T17:55:35.995Z,32.20
2022-12-31T17:58:05.489Z,39.73
2022-12-31T18:00:34.190Z,56.87
2022-12-31T18:03:01.512Z,67.83
2022-12-31T18:05:28.720Z,55.23
2022-12-31T18:07:55.736Z,47.70
2022-12-31T18:10:25.336Z,43.03
2022-12-31T18:12:52.447Z,46.70
2022-12-31T18:15:22.859Z,34.67
2022-12-31T18:17:50.803Z,31.87
2022-12-31T18:20:18.540Z,36.87
2022-12-31T18:22:46.123Z,37.30
2022-12-31T18:25:18.060Z,33.13
2022-12-31T18:27:45.372Z,33.67
2022-12-31T18:30:12.838Z,34.87
2022-12-31T18:32:41.647Z,32.60
2022-12-31T18:35:48.594Z,32.43
2022-12-31T18:38:15.464Z,29.23
2022-12-31T18:40:46.629Z,23.70
2022-12-31T18:43:16.687Z,23.10
2022-12-31T18:45:45.250Z,19.43
2022-12-31T18:48:13.384Z,20.60
2022-12-31T18:50:41.087Z,17.00
2022-12-31T18:53:18.062Z,21.03
2022-12-31T18:55:51.153Z,16.30
2022-12-31T18:58:18.234Z,15.40
2022-12-31T19:00:46.502Z,18.57
2022-12-31T19:03:27.413Z,19.07
2022-12-31T19:05:54.443Z,19.13
2022-12-31T19:08:22.778Z,22.00
2022-12-31T19:10:51.661Z,19.70
2022-12-31T19:13:20.752Z,19.60
2022-12-31T19:15:50.400Z,30.50
2022-12-31T19:18:17.564Z,37.93
2022-12-31T19:20:44.613Z,44.87
2022-12-31T19:23:17.921Z,58.10
2022-12-31T19:25:46.531Z,43.70
2022-12-31T19:28:19.634Z,40.33
2022-12-31T19:30:46.956Z,35.20
2022-12-31T19:33:15.037Z,30.03
2022-12-31T19:35:42.488Z,22.73
2022-12-31T19:38:23.384Z,24.13
2022-12-31T19:40:51.861Z,26.53
2022-12-31T19:43:21.533Z,25.37
2022-12-31T19:45:49.412Z,25.30
2022-12-31T19:48:25.821Z,24.50
2022-12-31T19:50:55.957Z,24.83
2022-12-31T19:53:26.363Z,25.70
2022-12-31T19:55:55.477Z,22.80
2022-12-31T19:58:27.956Z,22.10
2022-12-31T20:01:02.379Z,22.60
2022-12-31T20:03:31.685Z,21.23
2022-12-31T20:06:08.115Z,18.83
2022-12-31T20:08:36.923Z,19.13
2022-12-31T20:11:15.502Z,16.87
2022-12-31T20:13:43.329Z,17.23
2022-12-31T20:16:13.572Z,17.53
2022-12-31T20:18:42.122Z,18.13
2022-12-31T20:21:17.746Z,17.07
2022-12-31T20:23:45.648Z,17.93
2022-12-31T20:26:13.131Z,16.63
2022-12-31T20:28:40.391Z,17.43
2022-12-31T20:31:12.242Z,15.77
2022-12-31T20:33:39.447Z,16.70
2022-12-31T20:36:08.709Z,17.73
2022-12-31T20:38:35.767Z,18.53
2022-12-31T20:41:04.740Z,18.90
2022-12-31T20:43:33.110Z,16.47
2022-12-31T20:46:09.340Z,18.70
2022-12-31T20:48:39.441Z,19.43
2022-12-31T20:51:06.911Z,20.50
2022-12-31T20:53:33.811Z,20.73
2022-12-31T20:56:08.483Z,19.17
2022-12-31T20:58:40.406Z,20.43
2022-12-31T21:01:09.517Z,22.60
2022-12-31T21:06:26.002Z,21.43
2022-12-31T21:08:54.009Z,35.47
2022-12-31T21:11:40.046Z,22.60
2022-12-31T21:14:07.532Z,22.80
2022-12-31T21:16:34.980Z,26.00
2022-12-31T21:19:01.938Z,26.13
2022-12-31T21:21:28.802Z,22.00
2022-12-31T21:23:55.965Z,21.70
2022-12-31T22:29:19.841Z,28.90
2022-12-31T22:31:46.943Z,28.77
2022-12-31T22:34:13.876Z,30.67
2022-12-31T22:36:40.856Z,28.27
2022-12-31T22:39:07.734Z,26.57
2022-12-31T22:41:35.009Z,25.60
2022-12-31T22:44:04.768Z,25.97
2022-12-31T22:46:33.222Z,25.50
2022-12-31T22:49:01.457Z,23.10
2022-12-31T22:51:56.550Z,21.90
2022-12-31T22:54:17.439Z,21.17
2022-12-31T22:56:44.414Z,21.10
2022-12-31T22:59:11.625Z,22.67
2022-12-31T23:01:38.747Z,22.93
2022-12-31T23:04:05.840Z,21.83
2022-12-31T23:06:32.900Z,21.87
2022-12-31T23:09:18.514Z,25.10
2022-12-31T23:11:45.400Z,23.77
2022-12-31T23:14:35.877Z,22.97
2022-12-31T23:17:29.721Z,23.47
2022-12-31T23:20:31.897Z,23.13
2022-12-31T23:23:11.632Z,22.70
2022-12-31T23:25:52.507Z,25.70
2022-12-31T23:28:26.174Z,24.40
2022-12-31T23:30:53.232Z,25.13
2022-12-31T23:33:25.413Z,25.03
2022-12-31T23:36:03.306Z,26.97
2022-12-31T23:38:30.271Z,25.60
2022-12-31T23:40:57.139Z,26.00
2022-12-31T23:43:24.116Z,24.67
2022-12-31T23:45:51.234Z,27.13
2022-12-31T23:48:42.805Z,28.37
2022-12-31T23:51:10.173Z,28.53
2022-12-31T23:53:38.495Z,29.23
2022-12-31T23:56:23.964Z,27.13
2022-12-31T23:58:59.724Z,26.90
